createdAt,value
2023-05-06T00:00:30.600Z,87.16
2023-05-06T00:01:30.577Z,87.26
2023-05-06T00:02:30.606Z,87.22
2023-05-06T00:03:30.737Z,87.02
2023-05-06T00:04:30.610Z,87.43
2023-05-06T00:05:30.551Z,87.12
2023-05-06T00:06:30.538Z,86.88
2023-05-06T00:07:30.516Z,86.16
2023-05-06T00:08:30.604Z,86.16
2023-05-06T00:09:30.566Z,86.41
2023-05-06T00:10:30.515Z,86.31
2023-05-06T00:11:30.461Z,86.21
2023-05-06T00:12:30.463Z,86.51
2023-05-06T00:13:30.523Z,86.71
2023-05-06T00:14:30.455Z,86.41
2023-05-06T00:15:32.117Z,86.51
2023-05-06T00:16:31.495Z,86.25
2023-05-06T00:17:30.458Z,86.82
2023-05-06T00:18:30.539Z,86.31
2023-05-06T00:19:30.419Z,86.51
2023-05-06T00:20:30.430Z,85.56
2023-05-06T00:21:30.399Z,85.86
2023-05-06T00:22:30.451Z,85.96
2023-05-06T00:23:30.520Z,85.96
2023-05-06T00:24:30.425Z,85.93
2023-05-06T00:25:30.475Z,85.21
2023-05-06T00:26:30.411Z,84.70
2023-05-06T00:27:30.380Z,85.01
2023-05-06T00:28:30.449Z,85.21
2023-05-06T00:29:30.421Z,84.70
2023-05-06T00:30:30.361Z,84.41
2023-05-06T00:31:30.406Z,84.10
2023-05-06T00:32:30.397Z,84.30
2023-05-06T00:33:30.332Z,85.05
2023-05-06T00:34:30.392Z,85.25
2023-05-06T00:35:30.314Z,84.89
2023-05-06T00:36:30.335Z,85.50
2023-05-06T00:37:30.311Z,85.64
2023-05-06T00:38:30.308Z,85.84
2023-05-06T00:39:30.326Z,86.45
2023-05-06T00:40:30.284Z,86.15
2023-05-06T00:41:30.278Z,85.90
2023-05-06T00:42:30.272Z,85.90
2023-05-06T00:43:30.263Z,85.30
2023-05-06T00:44:30.294Z,85.30
2023-05-06T00:45:30.271Z,84.99
2023-05-06T00:46:30.255Z,85.39
2023-05-06T00:47:31.602Z,85.19
2023-05-06T00:48:30.251Z,85.05
2023-05-06T00:49:30.239Z,85.15
2023-05-06T00:50:30.254Z,84.95
2023-05-06T00:51:30.228Z,85.21
2023-05-06T00:52:30.237Z,85.01
2023-05-06T00:53:30.263Z,84.81
2023-05-06T00:54:30.185Z,85.11
2023-05-06T00:55:30.179Z,84.10
2023-05-06T00:56:30.267Z,84.75
2023-05-06T00:57:30.316Z,85.19
2023-05-06T00:58:30.163Z,85.90
2023-05-06T00:59:30.150Z,85.66
2023-05-06T01:00:30.147Z,85.05
2023-05-06T01:01:30.182Z,85.15
2023-05-06T01:02:39.882Z,84.70
2023-05-06T01:03:32.270Z,84.64
2023-05-06T01:04:30.139Z,84.85
2023-05-06T01:05:30.144Z,85.19
2023-05-06T01:06:30.129Z,85.09
2023-05-06T01:07:30.108Z,85.19
2023-05-06T01:08:30.091Z,85.19
2023-05-06T01:09:30.148Z,85.44
2023-05-06T01:10:30.081Z,85.94
2023-05-06T01:11:30.112Z,85.90
2023-05-06T01:12:30.125Z,86.31
2023-05-06T01:13:30.203Z,85.86
2023-05-06T01:14:30.105Z,86.10
2023-05-06T01:15:30.084Z,86.41
2023-05-06T01:16:30.124Z,86.00
2023-05-06T01:17:30.063Z,85.90
2023-05-06T01:18:30.043Z,86.21
2023-05-06T01:19:30.012Z,85.90
2023-05-06T01:20:30.061Z,86.16
2023-05-06T01:21:30.000Z,85.76
2023-05-06T01:22:29.990Z,85.09
2023-05-06T01:23:29.990Z,85.09
2023-05-06T01:24:30.003Z,85.60
2023-05-06T01:25:30.005Z,84.99
2023-05-06T01:26:29.956Z,85.50
2023-05-06T01:27:29.961Z,85.70
2023-05-06T01:28:29.981Z,85.66
2023-05-06T01:29:30.023Z,85.90
2023-05-06T01:30:29.958Z,85.80
2023-05-06T01:31:29.970Z,85.96
2023-05-06T01:32:29.945Z,85.46
2023-05-06T01:33:29.943Z,85.30
2023-05-06T01:34:29.914Z,84.89
2023-05-06T01:35:29.953Z,85.19
2023-05-06T01:36:30.935Z,85.46
2023-05-06T01:37:29.902Z,85.66
2023-05-06T01:38:29.893Z,85.25
2023-05-06T01:39:29.881Z,85.21
2023-05-06T01:40:29.863Z,84.91
2023-05-06T01:41:29.861Z,84.04
2023-05-06T01:42:29.883Z,84.58
2023-05-06T01:43:29.846Z,85.19
2023-05-06T01:44:29.857Z,85.56
2023-05-06T01:45:29.854Z,85.86
2023-05-06T01:46:29.888Z,85.62
2023-05-06T01:47:29.853Z,85.42
2023-05-06T01:48:29.841Z,85.01
2023-05-06T01:49:29.841Z,85.25
2023-05-06T01:50:29.816Z,85.36
2023-05-06T01:51:29.814Z,84.91
2023-05-06T01:52:29.789Z,84.81
2023-05-06T01:53:29.879Z,84.41
2023-05-06T01:54:29.778Z,84.70
2023-05-06T01:55:29.768Z,84.87
2023-05-06T01:56:29.759Z,84.47
2023-05-06T01:57:29.756Z,84.47
2023-05-06T01:58:29.780Z,84.10
2023-05-06T01:59:29.778Z,84.81
2023-05-06T02:00:29.747Z,84.64
2023-05-06T02:01:29.847Z,84.75
2023-05-06T02:02:29.804Z,85.15
2023-05-06T02:03:29.824Z,85.90
2023-05-06T02:04:29.732Z,86.07
2023-05-06T02:05:29.681Z,85.56
2023-05-06T02:06:29.733Z,84.85
2023-05-06T02:07:30.597Z,85.36
2023-05-06T02:08:29.676Z,85.70
2023-05-06T02:09:29.724Z,86.07
2023-05-06T02:10:29.691Z,85.86
2023-05-06T02:11:29.687Z,85.86
2023-05-06T02:12:29.635Z,86.68
2023-05-06T02:13:29.656Z,86.37
2023-05-06T02:14:29.672Z,85.66
2023-05-06T02:15:29.655Z,86.37
2023-05-06T02:16:29.637Z,86.16
2023-05-06T02:17:29.794Z,86.16
2023-05-06T02:18:29.616Z,86.41
2023-05-06T02:19:29.598Z,86.21
2023-05-06T02:20:29.619Z,86.98
2023-05-06T02:21:29.636Z,86.77
2023-05-06T02:22:29.584Z,86.98
2023-05-06T02:23:29.577Z,86.88
2023-05-06T02:24:29.625Z,86.88
2023-05-06T02:25:29.598Z,87.63
2023-05-06T02:26:29.560Z,88.38
2023-05-06T02:27:29.568Z,88.84
2023-05-06T02:28:29.561Z,88.60
2023-05-06T02:29:30.570Z,88.23
2023-05-06T02:30:29.527Z,87.93
2023-05-06T02:31:29.610Z,88.84
2023-05-06T02:32:29.604Z,88.49
2023-05-06T02:33:29.618Z,88.54
2023-05-06T02:34:29.513Z,88.34
2023-05-06T02:35:29.527Z,88.40
2023-05-06T02:36:29.489Z,88.49
2023-05-06T02:37:29.506Z,88.49
2023-05-06T02:38:29.474Z,88.70
2023-05-06T02:39:29.474Z,88.70
2023-05-06T02:40:29.453Z,88.29
2023-05-06T02:41:29.476Z,88.60
2023-05-06T02:42:30.479Z,88.54
2023-05-06T02:43:29.493Z,89.15
2023-05-06T02:44:29.425Z,89.45
2023-05-06T02:45:29.456Z,89.29
2023-05-06T02:46:29.421Z,89.65
2023-05-06T02:47:29.474Z,89.76
2023-05-06T02:48:29.425Z,89.86
2023-05-06T02:49:29.471Z,89.50
2023-05-06T02:50:29.374Z,89.11
2023-05-06T02:51:29.404Z,88.70
2023-05-06T02:52:29.398Z,88.90
2023-05-06T02:53:29.595Z,88.40
2023-05-06T02:54:29.439Z,88.66
2023-05-06T02:55:29.351Z,88.09
2023-05-06T02:56:29.423Z,87.99
2023-05-06T02:57:29.501Z,88.05
2023-05-06T02:58:29.369Z,87.54
2023-05-06T02:59:29.328Z,87.45
2023-05-06T03:00:29.355Z,87.14
2023-05-06T03:01:29.423Z,87.14
2023-05-06T03:02:29.398Z,86.63
2023-05-06T03:03:29.311Z,86.88
2023-05-06T03:04:29.335Z,86.68
2023-05-06T03:05:29.281Z,87.59
2023-05-06T03:06:29.288Z,87.52
2023-05-06T03:07:29.294Z,88.23
2023-05-06T03:08:29.283Z,87.93
2023-05-06T03:09:29.287Z,87.99
2023-05-06T03:10:29.252Z,87.99
2023-05-06T03:11:29.238Z,88.03
2023-05-06T03:12:29.276Z,87.99
2023-05-06T03:13:29.231Z,87.93
2023-05-06T03:14:29.247Z,87.89
2023-05-06T03:15:29.256Z,87.54
2023-05-06T03:16:29.256Z,87.89
2023-05-06T03:17:29.206Z,87.97
2023-05-06T03:18:29.412Z,88.34
2023-05-06T03:19:29.170Z,88.44
2023-05-06T03:20:29.153Z,88.58
2023-05-06T03:21:29.249Z,88.54
2023-05-06T03:22:29.189Z,88.49
2023-05-06T03:23:29.204Z,88.40
2023-05-06T03:24:30.164Z,87.89
2023-05-06T03:25:29.146Z,87.48
2023-05-06T03:26:29.120Z,88.64
2023-05-06T03:27:29.125Z,88.29
2023-05-06T03:28:29.148Z,88.29
2023-05-06T03:29:29.148Z,88.60
2023-05-06T03:30:29.088Z,87.99
2023-05-06T03:31:30.194Z,88.20
2023-05-06T03:32:29.103Z,87.89
2023-05-06T03:33:29.112Z,88.09
2023-05-06T03:34:29.129Z,87.69
2023-05-06T03:35:29.079Z,88.49
2023-05-06T03:36:29.050Z,87.48
2023-05-06T03:37:29.065Z,88.20
2023-05-06T03:38:29.032Z,87.99
2023-05-06T03:39:30.066Z,87.85
2023-05-06T03:40:29.038Z,87.14
2023-05-06T03:41:29.021Z,87.24
2023-05-06T03:42:29.090Z,86.94
2023-05-06T03:43:29.036Z,86.53
2023-05-06T03:44:29.066Z,86.73
2023-05-06T03:45:29.078Z,86.73
2023-05-06T03:46:29.014Z,86.59
2023-05-06T03:47:29.012Z,86.08
2023-05-06T03:48:28.985Z,85.68
2023-05-06T03:49:28.964Z,86.02
2023-05-06T03:50:29.608Z,85.99
2023-05-06T03:51:29.025Z,85.78
2023-05-06T03:52:28.947Z,85.48
2023-05-06T03:53:29.141Z,85.78
2023-05-06T03:54:28.952Z,85.64
2023-05-06T03:55:28.928Z,85.33
2023-05-06T03:56:28.899Z,85.17
2023-05-06T03:57:28.929Z,85.48
2023-05-06T03:58:28.914Z,85.07
2023-05-06T03:59:28.938Z,85.48
2023-05-06T04:00:28.888Z,84.97
2023-05-06T04:01:28.890Z,85.72
2023-05-06T04:02:29.050Z,85.58
2023-05-06T04:03:29.003Z,86.22
2023-05-06T04:04:28.864Z,85.82
2023-05-06T04:05:28.881Z,85.11
2023-05-06T04:06:28.895Z,86.16
2023-05-06T04:07:28.891Z,87.46
2023-05-06T04:08:29.609Z,87.73
2023-05-06T04:09:28.906Z,88.23
2023-05-06T04:10:28.819Z,88.03
2023-05-06T04:11:29.788Z,87.99
2023-05-06T04:12:28.805Z,87.59
2023-05-06T04:13:28.794Z,87.18
2023-05-06T04:14:28.798Z,86.68
2023-05-06T04:15:28.810Z,87.38
2023-05-06T04:16:28.827Z,87.18
2023-05-06T04:17:28.828Z,87.34
2023-05-06T04:18:28.757Z,86.94
2023-05-06T04:19:28.773Z,86.98
2023-05-06T04:20:28.869Z,87.28
2023-05-06T04:21:28.756Z,87.28
2023-05-06T04:22:28.739Z,87.59
2023-05-06T04:23:28.779Z,86.98
2023-05-06T04:24:28.754Z,86.77
2023-05-06T04:25:28.785Z,87.18
2023-05-06T04:26:28.706Z,87.38
2023-05-06T04:27:28.745Z,87.04
2023-05-06T04:28:28.715Z,86.73
2023-05-06T04:29:28.701Z,85.78
2023-05-06T04:30:28.680Z,85.78
2023-05-06T04:31:28.714Z,85.17
2023-05-06T04:32:28.737Z,85.07
2023-05-06T04:33:28.684Z,84.97
2023-05-06T04:34:28.691Z,84.67
2023-05-06T04:35:28.659Z,84.77
2023-05-06T04:36:28.691Z,84.56
2023-05-06T04:37:28.672Z,84.77
2023-05-06T04:38:28.645Z,84.56
2023-05-06T04:39:28.629Z,84.47
2023-05-06T04:40:28.625Z,84.77
2023-05-06T04:41:28.689Z,84.36
2023-05-06T04:42:28.617Z,84.10
2023-05-06T04:43:28.609Z,83.80
2023-05-06T04:44:28.584Z,83.96
2023-05-06T04:45:28.664Z,84.00
2023-05-06T04:46:28.606Z,84.06
2023-05-06T04:47:28.588Z,84.06
2023-05-06T04:48:28.546Z,84.16
2023-05-06T04:49:28.574Z,83.21
2023-05-06T04:50:28.562Z,83.01
2023-05-06T04:51:28.571Z,82.76
2023-05-06T04:52:28.518Z,81.96
2023-05-06T04:53:29.525Z,81.92
2023-05-06T04:54:28.557Z,81.65
2023-05-06T04:55:28.521Z,80.74
2023-05-06T04:56:28.521Z,81.55
2023-05-06T04:57:28.580Z,81.25
2023-05-06T04:58:28.478Z,81.45
2023-05-06T04:59:28.543Z,81.51
2023-05-06T05:00:28.491Z,81.51
2023-05-06T05:01:28.581Z,81.21
2023-05-06T05:02:28.633Z,80.50
2023-05-06T05:03:28.645Z,80.00
2023-05-06T05:04:28.515Z,80.57
2023-05-06T05:05:28.478Z,79.96
2023-05-06T05:06:28.481Z,79.59
2023-05-06T05:07:28.475Z,80.71
2023-05-06T05:08:28.443Z,80.84
2023-05-06T05:09:28.430Z,81.35
2023-05-06T05:10:28.412Z,81.15
2023-05-06T05:11:28.457Z,81.15
2023-05-06T05:12:28.407Z,81.39
2023-05-06T05:13:28.480Z,81.35
2023-05-06T05:14:28.437Z,80.88
2023-05-06T05:15:28.373Z,81.05
2023-05-06T05:16:28.502Z,81.15
2023-05-06T05:17:28.439Z,80.80
2023-05-06T05:18:28.393Z,81.31
2023-05-06T05:19:28.391Z,80.71
2023-05-06T05:20:28.358Z,80.54
2023-05-06T05:21:28.351Z,80.47
2023-05-06T05:22:28.366Z,80.47
2023-05-06T05:23:28.346Z,80.68
2023-05-06T05:24:28.328Z,80.47
2023-05-06T05:25:28.300Z,80.34
2023-05-06T05:26:28.336Z,81.79
2023-05-06T05:27:28.304Z,80.78
2023-05-06T05:28:28.319Z,80.92
2023-05-06T05:29:28.376Z,80.88
2023-05-06T05:30:28.303Z,80.68
2023-05-06T05:31:28.313Z,79.83
2023-05-06T05:32:28.336Z,79.19
2023-05-06T05:33:28.326Z,78.68
2023-05-06T05:34:28.253Z,77.84
2023-05-06T05:35:28.273Z,77.56
2023-05-06T05:36:28.282Z,76.95
2023-05-06T05:37:28.270Z,75.10
2023-05-06T05:38:28.273Z,74.63
2023-05-06T05:39:28.220Z,75.13
2023-05-06T05:40:28.218Z,76.35
2023-05-06T05:41:28.221Z,76.45
2023-05-06T05:42:28.213Z,76.55
2023-05-06T05:43:28.204Z,76.35
2023-05-06T05:44:28.193Z,76.15
2023-05-06T05:45:29.256Z,75.78
2023-05-06T05:46:28.207Z,74.87
2023-05-06T05:47:28.203Z,76.69
2023-05-06T05:48:28.175Z,77.73
2023-05-06T05:49:28.162Z,77.09
2023-05-06T05:50:28.239Z,76.66
2023-05-06T05:51:28.167Z,76.72
2023-05-06T05:52:28.180Z,77.33
2023-05-06T05:53:28.152Z,76.66
2023-05-06T05:54:28.206Z,77.71
2023-05-06T05:55:28.174Z,77.95
2023-05-06T05:56:28.116Z,78.15
2023-05-06T05:57:28.168Z,78.69
2023-05-06T05:58:28.104Z,79.16
2023-05-06T05:59:28.121Z,80.58
2023-05-06T06:00:28.093Z,79.97
2023-05-06T06:01:28.229Z,80.07
2023-05-06T06:02:28.220Z,81.09
2023-05-06T06:03:28.162Z,80.31
2023-05-06T06:04:28.134Z,80.62
2023-05-06T06:05:28.148Z,80.82
2023-05-06T06:06:28.037Z,80.72
2023-05-06T06:07:28.022Z,80.21
2023-05-06T06:08:28.050Z,80.88
2023-05-06T06:09:28.073Z,80.24
2023-05-06T06:10:28.046Z,78.92
2023-05-06T06:11:28.022Z,78.52
2023-05-06T06:12:28.078Z,78.38
2023-05-06T06:13:28.760Z,77.84
2023-05-06T06:14:29.021Z,77.73
2023-05-06T06:15:28.006Z,76.62
2023-05-06T06:16:27.997Z,76.59
2023-05-06T06:17:28.223Z,76.69
2023-05-06T06:18:27.989Z,75.95
2023-05-06T06:19:27.968Z,74.02
2023-05-06T06:20:28.019Z,75.21
2023-05-06T06:21:27.958Z,75.98
2023-05-06T06:22:27.962Z,75.98
2023-05-06T06:23:27.917Z,75.34
2023-05-06T06:24:27.949Z,75.00
2023-05-06T06:25:27.951Z,73.89
2023-05-06T06:26:27.912Z,73.79
2023-05-06T06:27:27.936Z,74.49
2023-05-06T06:28:27.889Z,75.20
2023-05-06T06:29:27.889Z,73.25
2023-05-06T06:30:27.881Z,72.11
2023-05-06T06:31:27.919Z,70.59
2023-05-06T06:32:27.915Z,71.20
2023-05-06T06:33:27.846Z,70.76
2023-05-06T06:34:27.892Z,69.45
2023-05-06T06:35:27.838Z,71.00
2023-05-06T06:36:27.871Z,71.64
2023-05-06T06:37:27.833Z,71.33
2023-05-06T06:38:27.875Z,72.78
2023-05-06T06:39:27.861Z,73.08
2023-05-06T06:40:27.857Z,72.24
2023-05-06T06:41:27.812Z,72.54
2023-05-06T06:42:27.814Z,72.71
2023-05-06T06:43:27.854Z,73.01
2023-05-06T06:44:27.796Z,72.07
2023-05-06T06:45:27.842Z,71.26
2023-05-06T06:46:27.790Z,72.20
2023-05-06T06:47:27.782Z,72.20
2023-05-06T06:48:27.789Z,72.14
2023-05-06T06:49:27.807Z,72.04
2023-05-06T06:50:27.760Z,71.80
2023-05-06T06:51:27.802Z,70.97
2023-05-06T06:52:27.744Z,71.17
2023-05-06T06:53:27.734Z,71.06
2023-05-06T06:54:27.785Z,69.82
2023-05-06T06:55:27.727Z,71.91
2023-05-06T06:56:27.733Z,72.51
2023-05-06T06:57:27.716Z,72.38
2023-05-06T06:58:27.797Z,72.38
2023-05-06T06:59:27.696Z,72.78
2023-05-06T07:00:27.738Z,72.27
2023-05-06T07:01:27.757Z,72.48
2023-05-06T07:02:27.743Z,72.48
2023-05-06T07:03:27.817Z,72.54
2023-05-06T07:04:27.795Z,71.64
2023-05-06T07:05:27.754Z,70.62
2023-05-06T07:06:27.670Z,69.89
2023-05-06T07:07:27.659Z,70.02
2023-05-06T07:08:27.694Z,71.03
2023-05-06T07:09:27.665Z,71.17
2023-05-06T07:10:27.638Z,70.62
2023-05-06T07:11:27.656Z,69.89
2023-05-06T07:12:27.622Z,70.09
2023-05-06T07:13:27.607Z,69.45
2023-05-06T07:14:27.590Z,70.15
2023-05-06T07:15:27.617Z,69.25
2023-05-06T07:16:27.664Z,70.12
2023-05-06T07:17:27.700Z,70.96
2023-05-06T07:18:27.804Z,73.02
2023-05-06T07:19:27.606Z,72.24
2023-05-06T07:20:27.672Z,69.85
2023-05-06T07:21:27.627Z,66.35
2023-05-06T07:22:27.602Z,62.61
2023-05-06T07:23:28.271Z,61.05
2023-05-06T07:24:27.572Z,59.32
2023-05-06T07:25:28.568Z,57.97
2023-05-06T07:26:27.550Z,56.88
2023-05-06T07:27:27.541Z,54.11
2023-05-06T07:28:27.564Z,53.11
2023-05-06T07:29:27.529Z,51.70
2023-05-06T07:30:27.515Z,51.15
2023-05-06T07:31:27.568Z,49.32
2023-05-06T07:32:27.565Z,48.82
2023-05-06T07:33:27.575Z,49.39
2023-05-06T07:34:27.499Z,47.04
2023-05-06T07:35:27.474Z,47.04
2023-05-06T07:36:27.467Z,46.20
2023-05-06T07:37:27.571Z,45.54
2023-05-06T07:38:27.488Z,43.96
2023-05-06T07:39:27.480Z,42.42
2023-05-06T07:40:27.446Z,43.21
2023-05-06T07:41:27.464Z,44.42
2023-05-06T07:42:28.515Z,44.16
2023-05-06T07:43:27.424Z,45.90
2023-05-06T07:44:27.447Z,47.05
2023-05-06T07:45:27.424Z,46.95
2023-05-06T07:46:27.513Z,47.03
2023-05-06T07:47:28.513Z,46.76
2023-05-06T07:48:27.467Z,46.78
2023-05-06T07:49:27.439Z,52.97
2023-05-06T07:50:27.372Z,56.82
2023-05-06T07:51:27.398Z,59.83
2023-05-06T07:52:27.423Z,61.02
2023-05-06T07:53:27.544Z,64.10
2023-05-06T07:54:27.362Z,65.97
2023-05-06T07:55:27.360Z,66.50
2023-05-06T07:56:27.438Z,66.60
2023-05-06T07:57:27.381Z,65.94
2023-05-06T07:58:27.333Z,65.27
2023-05-06T07:59:27.329Z,60.85
2023-05-06T08:00:28.073Z,56.68
2023-05-06T08:01:27.328Z,53.59
2023-05-06T08:02:27.463Z,53.19
2023-05-06T08:03:27.581Z,53.24
2023-05-06T08:04:27.367Z,50.95
2023-05-06T08:05:27.300Z,54.39
2023-05-06T08:06:27.294Z,56.87
2023-05-06T08:07:27.268Z,56.87
2023-05-06T08:08:27.288Z,56.84
2023-05-06T08:09:27.266Z,57.98
2023-05-06T08:10:27.246Z,58.92
2023-05-06T08:11:27.254Z,56.89
2023-05-06T08:12:27.238Z,58.32
2023-05-06T08:13:28.143Z,58.55
2023-05-06T08:14:27.258Z,60.53
2023-05-06T08:15:27.228Z,61.80
2023-05-06T08:16:27.716Z,63.50
2023-05-06T08:17:27.253Z,63.64
2023-05-06T08:18:27.262Z,63.31
2023-05-06T08:19:27.238Z,60.97
2023-05-06T08:20:27.247Z,59.42
2023-05-06T08:21:27.231Z,57.18
2023-05-06T08:22:27.177Z,54.53
2023-05-06T08:23:27.252Z,51.67
2023-05-06T08:24:27.181Z,50.87
2023-05-06T08:25:27.268Z,52.19
2023-05-06T08:26:27.178Z,51.22
2023-05-06T08:27:27.262Z,49.32
2023-05-06T08:28:27.712Z,48.55
2023-05-06T08:29:27.148Z,45.90
2023-05-06T08:30:27.133Z,44.72
2023-05-06T08:31:27.264Z,43.94
2023-05-06T08:32:27.168Z,43.35
2023-05-06T08:33:27.122Z,44.04
2023-05-06T08:34:27.124Z,46.92
2023-05-06T08:35:27.127Z,46.07
2023-05-06T08:36:27.116Z,46.11
2023-05-06T08:37:27.116Z,43.74
2023-05-06T08:38:27.100Z,42.08
2023-05-06T08:39:27.099Z,41.57
2023-05-06T08:40:27.065Z,40.98
2023-05-06T08:41:27.061Z,43.19
2023-05-06T08:42:27.060Z,43.61
2023-05-06T08:43:27.108Z,44.20
2023-05-06T08:44:27.050Z,44.45
2023-05-06T08:45:29.556Z,43.66
2023-05-06T08:46:27.044Z,43.25
2023-05-06T08:47:27.046Z,43.60
2023-05-06T08:48:27.029Z,40.94
2023-05-06T08:49:27.074Z,42.56
2023-05-06T08:50:27.055Z,43.83
2023-05-06T08:51:27.038Z,45.65
2023-05-06T08:52:27.109Z,44.52
2023-05-06T08:53:26.970Z,43.19
2023-05-06T08:54:26.976Z,43.47
2023-05-06T08:55:26.975Z,43.74
2023-05-06T08:56:27.013Z,44.10
2023-05-06T08:57:26.977Z,44.18
2023-05-06T08:58:26.966Z,42.42
2023-05-06T08:59:26.972Z,40.96
2023-05-06T09:00:26.923Z,41.28
2023-05-06T09:01:26.967Z,40.23
2023-05-06T09:02:26.992Z,39.72
2023-05-06T09:03:27.149Z,39.68
2023-05-06T09:04:26.945Z,38.99
2023-05-06T09:05:26.915Z,39.66
2023-05-06T09:06:26.899Z,39.03
2023-05-06T09:07:26.898Z,39.62
2023-05-06T09:08:26.889Z,39.37
2023-05-06T09:09:26.925Z,42.18
2023-05-06T09:10:26.874Z,42.78
2023-05-06T09:11:26.868Z,46.05
2023-05-06T09:12:26.895Z,46.98
2023-05-06T09:13:26.856Z,46.09
2023-05-06T09:14:26.851Z,44.98
2023-05-06T09:15:26.839Z,44.23
2023-05-06T09:16:26.899Z,44.24
2023-05-06T09:17:27.071Z,45.04
2023-05-06T09:18:26.867Z,47.16
2023-05-06T09:19:26.845Z,46.49
2023-05-06T09:20:26.847Z,46.19
2023-05-06T09:21:26.803Z,44.20
2023-05-06T09:22:26.857Z,42.85
2023-05-06T09:23:26.800Z,42.83
2023-05-06T09:24:26.804Z,41.96
2023-05-06T09:25:26.768Z,39.82
2023-05-06T09:26:26.797Z,37.93
2023-05-06T09:27:26.761Z,38.44
2023-05-06T09:28:26.806Z,40.00
2023-05-06T09:29:26.819Z,39.84
2023-05-06T09:30:26.764Z,41.49
2023-05-06T09:31:26.872Z,42.46
2023-05-06T09:32:26.856Z,39.86
2023-05-06T09:33:26.804Z,39.40
2023-05-06T09:34:26.733Z,42.08
2023-05-06T09:35:26.740Z,42.00
2023-05-06T09:36:26.778Z,40.84
2023-05-06T09:37:26.716Z,39.25
2023-05-06T09:38:26.714Z,39.94
2023-05-06T09:39:26.691Z,41.02
2023-05-06T09:40:26.738Z,42.18
2023-05-06T09:41:26.711Z,42.04
2023-05-06T09:42:26.713Z,41.08
2023-05-06T09:43:26.695Z,42.18
2023-05-06T09:44:26.672Z,42.64
2023-05-06T09:45:26.831Z,42.44
2023-05-06T09:46:26.754Z,39.86
2023-05-06T09:47:26.754Z,38.21
2023-05-06T09:48:26.674Z,38.58
2023-05-06T09:49:26.672Z,39.06
2023-05-06T09:50:26.668Z,37.88
2023-05-06T09:51:26.641Z,37.21
2023-05-06T09:52:26.655Z,36.28
2023-05-06T09:53:26.636Z,36.10
2023-05-06T09:54:26.639Z,37.93
2023-05-06T09:55:26.876Z,40.62
2023-05-06T09:56:26.643Z,43.63
2023-05-06T09:57:27.616Z,46.74
2023-05-06T09:58:26.672Z,45.09
2023-05-06T09:59:26.629Z,42.64
2023-05-06T10:00:26.607Z,41.73
2023-05-06T10:01:36.067Z,40.96
2023-05-06T10:02:28.707Z,39.56
2023-05-06T10:03:26.690Z,40.74
2023-05-06T10:04:26.807Z,39.42
2023-05-06T10:05:26.598Z,40.09
2023-05-06T10:06:26.583Z,38.56
2023-05-06T10:07:26.596Z,37.84
2023-05-06T10:08:26.566Z,37.54
2023-05-06T10:09:26.554Z,40.96
2023-05-06T10:10:26.553Z,42.32
2023-05-06T10:11:27.579Z,40.70
2023-05-06T10:12:26.581Z,40.88
2023-05-06T10:13:26.546Z,41.30
2023-05-06T10:14:26.577Z,40.98
2023-05-06T10:15:26.559Z,42.74
2023-05-06T10:16:26.595Z,39.89
2023-05-06T10:17:26.631Z,37.82
2023-05-06T10:18:26.517Z,35.88
2023-05-06T10:19:26.786Z,39.97
2023-05-06T10:20:26.577Z,41.33
2023-05-06T10:21:26.498Z,39.66
2023-05-06T10:22:26.547Z,38.82
2023-05-06T10:23:26.489Z,37.44
2023-05-06T10:24:26.456Z,40.29
2023-05-06T10:25:26.494Z,43.91
2023-05-06T10:26:26.473Z,42.44
2023-05-06T10:27:26.467Z,41.16
2023-05-06T10:28:30.953Z,40.31
2023-05-06T10:29:26.440Z,38.26
2023-05-06T10:30:26.730Z,39.05
2023-05-06T10:31:26.420Z,37.74
2023-05-06T10:32:26.470Z,37.80
2023-05-06T10:33:26.526Z,38.62
2023-05-06T10:34:26.414Z,38.11
2023-05-06T10:35:26.410Z,36.40
2023-05-06T10:36:26.390Z,36.87
2023-05-06T10:37:26.434Z,40.58
2023-05-06T10:38:26.362Z,41.04
2023-05-06T10:39:26.373Z,38.80
2023-05-06T10:40:26.364Z,39.76
2023-05-06T10:41:26.351Z,39.48
2023-05-06T10:42:26.333Z,37.65
2023-05-06T10:43:26.336Z,36.63
2023-05-06T10:44:26.336Z,36.49
2023-05-06T10:45:26.372Z,36.91
2023-05-06T10:46:26.383Z,36.03
2023-05-06T10:47:26.350Z,37.09
2023-05-06T10:48:26.330Z,36.97
2023-05-06T10:49:26.356Z,36.77
2023-05-06T10:50:26.317Z,37.51
2023-05-06T10:51:26.269Z,38.34
2023-05-06T10:52:26.272Z,38.17
2023-05-06T10:53:26.247Z,38.40
2023-05-06T10:54:26.277Z,38.68
2023-05-06T10:55:26.292Z,37.84
2023-05-06T10:56:26.246Z,36.36
2023-05-06T10:57:26.244Z,36.54
2023-05-06T10:58:26.210Z,37.26
2023-05-06T10:59:26.215Z,38.10
2023-05-06T11:00:26.209Z,38.64
2023-05-06T11:01:26.232Z,38.01
2023-05-06T11:02:26.371Z,38.38
2023-05-06T11:03:26.296Z,36.40
2023-05-06T11:04:26.172Z,36.30
2023-05-06T11:05:26.291Z,37.87
2023-05-06T11:06:26.185Z,38.51
2023-05-06T11:07:26.188Z,39.01
2023-05-06T11:08:26.190Z,37.87
2023-05-06T11:09:26.188Z,36.49
2023-05-06T11:10:26.177Z,37.08
2023-05-06T11:11:26.120Z,37.40
2023-05-06T11:12:26.113Z,37.95
2023-05-06T11:13:26.277Z,36.40
2023-05-06T11:14:26.150Z,34.95
2023-05-06T11:15:26.157Z,35.14
2023-05-06T11:16:26.173Z,34.42
2023-05-06T11:17:26.193Z,35.38
2023-05-06T11:18:26.079Z,36.08
2023-05-06T11:19:26.081Z,35.90
2023-05-06T11:20:26.074Z,36.20
2023-05-06T11:21:26.158Z,38.63
2023-05-06T11:22:26.086Z,41.69
2023-05-06T11:23:26.054Z,44.06
2023-05-06T11:24:26.053Z,42.36
2023-05-06T11:25:26.062Z,41.38
2023-05-06T11:26:26.043Z,41.31
2023-05-06T11:27:26.059Z,38.18
2023-05-06T11:28:26.126Z,39.39
2023-05-06T11:29:26.036Z,36.11
2023-05-06T11:30:26.056Z,35.71
2023-05-06T11:31:26.031Z,39.43
2023-05-06T11:32:26.050Z,41.30
2023-05-06T11:33:26.003Z,42.54
2023-05-06T11:34:25.969Z,39.76
2023-05-06T11:35:26.005Z,38.45
2023-05-06T11:36:25.947Z,37.66
2023-05-06T11:37:25.990Z,38.28
2023-05-06T11:38:25.920Z,38.12
2023-05-06T11:39:25.974Z,36.67
2023-05-06T11:40:25.930Z,36.32
2023-05-06T11:41:25.936Z,34.66
2023-05-06T11:42:25.942Z,37.73
2023-05-06T11:43:25.944Z,37.61
2023-05-06T11:44:25.888Z,38.38
2023-05-06T11:45:26.564Z,37.69
2023-05-06T11:46:25.921Z,38.84
2023-05-06T11:47:25.966Z,36.85
2023-05-06T11:48:26.008Z,36.75
2023-05-06T11:49:25.907Z,36.49
2023-05-06T11:50:25.859Z,38.08
2023-05-06T11:51:25.850Z,39.84
2023-05-06T11:52:25.881Z,37.87
2023-05-06T11:53:25.873Z,38.34
2023-05-06T11:54:25.810Z,38.49
2023-05-06T11:55:25.835Z,36.63
2023-05-06T11:56:25.830Z,38.30
2023-05-06T11:57:25.795Z,38.16
2023-05-06T11:58:25.791Z,38.77
2023-05-06T11:59:25.810Z,38.24
2023-05-06T12:00:26.768Z,37.99
2023-05-06T12:01:25.790Z,36.74
2023-05-06T12:02:25.856Z,36.77
2023-05-06T12:03:26.062Z,38.71
2023-05-06T12:04:25.836Z,38.42
2023-05-06T12:05:25.748Z,38.18
2023-05-06T12:06:25.747Z,37.76
2023-05-06T12:07:25.715Z,36.93
2023-05-06T12:08:28.012Z,35.13
2023-05-06T12:09:26.776Z,36.11
2023-05-06T12:10:25.711Z,34.33
2023-05-06T12:11:25.719Z,34.88
2023-05-06T12:12:25.691Z,33.77
2023-05-06T12:13:25.758Z,32.78
2023-05-06T12:14:25.676Z,32.10
2023-05-06T12:15:25.699Z,33.00
2023-05-06T12:16:25.822Z,32.73
2023-05-06T12:17:25.700Z,33.05
2023-05-06T12:18:25.673Z,34.00
2023-05-06T12:19:25.636Z,33.51
2023-05-06T12:20:25.638Z,35.47
2023-05-06T12:21:25.655Z,36.00
2023-05-06T12:22:25.621Z,36.13
2023-05-06T12:23:25.591Z,38.17
2023-05-06T12:24:25.639Z,36.20
2023-05-06T12:25:25.609Z,36.41
2023-05-06T12:26:25.607Z,38.71
2023-05-06T12:27:25.607Z,41.81
2023-05-06T12:28:25.584Z,41.08
2023-05-06T12:29:25.554Z,39.00
2023-05-06T12:30:25.560Z,38.81
2023-05-06T12:31:25.668Z,38.56
2023-05-06T12:32:25.630Z,38.42
2023-05-06T12:33:25.574Z,36.92
2023-05-06T12:34:25.525Z,35.49
2023-05-06T12:35:25.532Z,34.77
2023-05-06T12:36:25.505Z,34.13
2023-05-06T12:37:25.547Z,35.05
2023-05-06T12:38:25.493Z,35.33
2023-05-06T12:39:25.501Z,38.26
2023-05-06T12:40:25.494Z,37.22
2023-05-06T12:41:25.548Z,36.11
2023-05-06T12:42:25.485Z,36.88
2023-05-06T12:43:25.473Z,35.88
2023-05-06T12:44:25.527Z,35.00
2023-05-06T12:45:25.506Z,35.63
2023-05-06T12:46:25.506Z,33.98
2023-05-06T12:47:25.611Z,34.01
2023-05-06T12:48:25.440Z,34.56
2023-05-06T12:49:25.432Z,34.90
2023-05-06T12:50:25.427Z,35.35
2023-05-06T12:51:25.403Z,40.88
2023-05-06T12:52:25.455Z,41.95